Time;durP1;ratioP1;P1;durP2;ratioP2;P2;SDS_P1;SDS_P2;PMS_P1;PMS_P2;Temp;Humidity;BMP_temperature;BMP_pressure;BME280_temperature;BME280_humidity;BME280_pressure;Samples;Min_cycle;Max_cycle;Signal;HPM_P1;HPM_P2
2022/11/15 00:00:30;;;;;;;11.50;7.83;;;10.30;99.90;;;;;;5051646;28;20207;-51
2022/11/15 00:02:57;;;;;;;9.77;7.20;;;10.40;99.90;;;;;;5051420;28;20743;-54
2022/11/15 00:05:24;;;;;;;11.37;7.13;;;10.40;99.90;;;;;;5051735;28;20240;-56
2022/11/15 00:07:52;;;;;;;15.03;7.03;;;10.40;99.90;;;;;;5051601;28;20259;-57
2022/11/15 00:10:19;;;;;;;10.53;6.93;;;10.50;99.90;;;;;;5051372;28;20209;-54
2022/11/15 00:12:45;;;;;;;12.67;7.67;;;10.50;99.90;;;;;;5051631;28;20229;-56
2022/11/15 00:15:12;;;;;;;10.83;7.53;;;10.50;99.90;;;;;;5051563;28;20208;-56
2022/11/15 00:17:39;;;;;;;8.30;6.63;;;10.50;99.90;;;;;;5051252;28;20216;-57
2022/11/15 00:20:06;;;;;;;12.30;6.87;;;10.60;99.90;;;;;;5051595;28;20271;-56
2022/11/15 00:22:33;;;;;;;12.50;6.90;;;10.70;99.90;;;;;;5051151;28;20893;-51
2022/11/15 00:25:01;;;;;;;10.97;7.20;;;10.70;99.90;;;;;;5051420;28;20235;-57
2022/11/15 00:27:28;;;;;;;10.77;6.57;;;10.80;99.90;;;;;;5051222;28;20213;-51
2022/11/15 00:29:55;;;;;;;11.73;6.93;;;10.80;99.90;;;;;;5051307;28;20205;-55
2022/11/15 00:32:22;;;;;;;10.90;6.83;;;10.90;99.90;;;;;;5051209;28;20890;-55
2022/11/15 00:34:48;;;;;;;9.17;6.90;;;10.90;99.90;;;;;;5051283;28;20209;-57
2022/11/15 00:37:15;;;;;;;9.83;6.83;;;11.00;99.90;;;;;;5051205;28;20212;-55
2022/11/15 00:39:41;;;;;;;9.00;6.70;;;11.10;99.90;;;;;;5051444;28;20209;-55
2022/11/15 00:42:09;;;;;;;9.87;6.30;;;11.10;99.90;;;;;;5051045;28;20597;-52
2022/11/15 00:44:36;;;;;;;10.90;6.73;;;11.20;99.90;;;;;;5051926;28;20229;-52
2022/11/15 00:47:03;;;;;;;8.83;7.03;;;11.30;99.90;;;;;;5054532;28;20742;-52
2022/11/15 00:49:29;;;;;;;9.20;6.57;;;11.30;99.90;;;;;;5054861;28;20624;-51
2022/11/15 00:51:56;;;;;;;9.00;6.30;;;11.30;99.90;;;;;;5054630;28;20209;-53
2022/11/15 00:54:23;;;;;;;10.43;6.57;;;11.30;99.90;;;;;;5054884;28;20279;-54
2022/11/15 00:56:49;;;;;;;15.23;6.67;;;11.40;99.90;;;;;;5054467;28;20251;-54
2022/11/15 00:59:17;;;;;;;12.60;6.63;;;11.40;99.90;;;;;;5054730;28;20264;-56
2022/11/15 01:01:44;;;;;;;9.03;6.00;;;11.40;99.90;;;;;;5054553;28;20209;-55
2022/11/15 01:04:10;;;;;;;8.23;6.50;;;11.50;99.90;;;;;;5054645;28;20237;-56
2022/11/15 01:06:37;;;;;;;8.07;6.07;;;11.50;99.90;;;;;;5054365;28;20217;-54
2022/11/15 01:09:04;;;;;;;9.67;6.10;;;11.60;99.90;;;;;;5054705;28;20210;-57
2022/11/15 01:11:31;;;;;;;8.87;6.13;;;11.60;99.90;;;;;;5054524;28;20261;-55
2022/11/15 01:13:57;;;;;;;9.17;6.00;;;11.60;99.90;;;;;;5054289;28;20221;-56
2022/11/15 01:16:25;;;;;;;8.73;5.83;;;11.70;99.90;;;;;;5054082;28;20745;-56
2022/11/15 01:18:52;;;;;;;8.67;5.23;;;11.70;99.90;;;;;;5054519;28;20280;-57
2022/11/15 01:21:20;;;;;;;8.30;6.00;;;11.70;99.90;;;;;;5054509;28;20629;-54
2022/11/15 01:23:46;;;;;;;11.63;6.97;;;11.70;99.90;;;;;;5054348;28;20268;-56
2022/11/15 01:26:15;;;;;;;9.87;6.37;;;11.70;99.90;;;;;;5053956;28;20217;-57
2022/11/15 01:28:42;;;;;;;9.47;6.17;;;11.70;99.90;;;;;;5053980;28;20234;-55
2022/11/15 01:31:12;;;;;;;10.60;5.80;;;11.80;99.90;;;;;;5054250;28;20778;-56
2022/11/15 01:33:41;;;;;;;8.93;6.07;;;11.80;99.90;;;;;;5054240;28;20225;-56
2022/11/15 01:36:11;;;;;;;8.90;5.60;;;11.80;99.90;;;;;;5053985;28;20214;-54
2022/11/15 01:38:38;;;;;;;9.03;5.60;;;11.80;99.90;;;;;;5054509;28;20629;-57
2022/11/15 01:41:05;;;;;;;9.87;5.67;;;11.80;99.90;;;;;;5054128;28;20217;-57
2022/11/15 01:43:33;;;;;;;9.27;6.10;;;11.80;99.90;;;;;;5054080;28;20232;-54
2022/11/15 01:46:05;;;;;;;9.37;5.80;;;11.80;99.90;;;;;;5053922;28;20218;-57
2022/11/15 01:48:34;;;;;;;7.10;5.53;;;11.80;99.90;;;;;;5054128;28;20568;-57
2022/11/15 01:51:07;;;;;;;8.87;6.00;;;11.80;99.90;;;;;;5053607;28;20729;-56
2022/11/15 01:53:37;;;;;;;12.83;5.57;;;11.80;99.90;;;;;;5053585;28;20285;-57
2022/11/15 01:56:07;;;;;;;7.80;5.63;;;11.80;99.90;;;;;;5052827;28;20209;-55
2022/11/15 01:58:35;;;;;;;9.30;5.47;;;11.90;99.90;;;;;;5053803;28;20205;-55
2022/11/15 02:01:02;;;;;;;10.27;6.03;;;11.90;99.90;;;;;;5053570;28;20212;-57
2022/11/15 02:03:37;;;;;;;7.40;5.47;;;11.90;99.90;;;;;;5053510;28;20728;-54
2022/11/15 02:06:06;;;;;;;8.77;4.90;;;12.00;99.90;;;;;;5053103;28;20632;-56
2022/11/15 02:08:33;;;;;;;10.00;5.30;;;12.00;99.90;;;;;;5053373;28;20214;-57
2022/11/15 02:10:59;;;;;;;9.10;5.40;;;12.00;99.90;;;;;;5053728;28;20209;-53
2022/11/15 02:13:27;;;;;;;7.53;5.07;;;12.00;99.90;;;;;;5053017;28;20226;-54
2022/11/15 02:16:05;;;;;;;6.50;5.50;;;12.00;99.90;;;;;;5053248;28;20209;-56
2022/11/15 02:18:37;;;;;;;6.93;5.43;;;12.00;99.90;;;;;;5053261;28;20209;-56
2022/11/15 02:21:17;;;;;;;8.23;5.50;;;12.00;99.90;;;;;;5053337;28;20210;-53
2022/11/15 02:24:10;;;;;;;6.83;5.27;;;12.00;99.90;;;;;;5053156;28;20275;-56
2022/11/15 02:27:09;;;;;;;8.13;4.80;;;12.00;99.90;;;;;;5052845;28;20271;-55
2022/11/15 02:29:55;;;;;;;8.37;5.40;;;12.10;99.90;;;;;;5052848;28;20207;-56
2022/11/15 02:32:33;;;;;;;7.40;5.27;;;12.00;99.90;;;;;;5052940;28;20228;-55
2022/11/15 02:35:04;;;;;;;6.93;4.90;;;12.00;99.90;;;;;;5052880;28;20259;-54
2022/11/15 02:37:40;;;;;;;13.40;5.10;;;12.00;99.90;;;;;;5052594;28;20628;-56
2022/11/15 02:40:13;;;;;;;6.57;5.40;;;12.10;99.90;;;;;;5053057;28;20238;-57
2022/11/15 02:45:36;;;;;;;11.23;5.63;;;12.00;99.90;;;;;;5052684;28;20704;-57
2022/11/15 02:48:06;;;;;;;7.30;5.47;;;12.00;99.90;;;;;;5052379;28;20209;-54
2022/11/15 02:50:34;;;;;;;11.90;5.83;;;11.90;99.90;;;;;;5052631;28;20209;-53
2022/11/15 02:53:01;;;;;;;10.73;5.77;;;12.00;99.90;;;;;;5052515;28;20284;-56
2022/11/15 02:55:30;;;;;;;10.47;6.27;;;11.90;99.90;;;;;;5052592;28;20208;-54
2022/11/15 02:58:24;;;;;;;11.03;6.03;;;11.80;99.90;;;;;;5052206;28;20205;-55
2022/11/15 03:00:58;;;;;;;8.13;6.07;;;11.80;99.90;;;;;;5052836;28;20255;-55
2022/11/15 03:03:49;;;;;;;10.37;6.90;;;11.80;99.90;;;;;;5052552;28;20229;-54
2022/11/15 03:06:26;;;;;;;8.63;6.37;;;11.80;99.90;;;;;;5052296;28;20256;-52
2022/11/15 03:09:02;;;;;;;11.27;6.43;;;11.80;99.90;;;;;;5051580;28;20186;-55
2022/11/15 03:11:34;;;;;;;7.43;6.27;;;11.80;99.90;;;;;;5052399;28;20625;-55
2022/11/15 03:14:08;;;;;;;10.63;6.50;;;11.80;99.90;;;;;;5052052;28;20352;-54
2022/11/15 03:16:38;;;;;;;15.17;7.67;;;11.80;99.90;;;;;;5052221;28;20593;-56
2022/11/15 03:19:13;;;;;;;9.53;6.60;;;11.80;99.90;;;;;;5051895;28;20202;-55
2022/11/15 03:21:41;;;;;;;9.93;6.37;;;11.80;99.90;;;;;;5052238;28;20255;-57
2022/11/15 03:24:09;;;;;;;8.57;6.43;;;11.90;99.90;;;;;;5051920;28;20271;-53
2022/11/15 03:26:39;;;;;;;9.83;6.97;;;11.90;99.90;;;;;;5051884;28;20205;-56
2022/11/15 03:29:10;;;;;;;9.67;6.77;;;11.90;99.90;;;;;;5051929;28;20205;-56
2022/11/15 03:31:49;;;;;;;11.37;6.60;;;11.90;99.90;;;;;;5051898;28;20205;-54
2022/11/15 03:34:26;;;;;;;9.90;6.47;;;12.00;99.90;;;;;;5051790;28;20770;-54
2022/11/15 03:36:53;;;;;;;10.27;6.10;;;12.00;99.90;;;;;;5051699;28;20205;-57
2022/11/15 03:39:21;;;;;;;9.13;6.20;;;12.00;99.90;;;;;;5051822;28;20212;-54
2022/11/15 03:41:55;;;;;;;8.07;5.73;;;12.00;99.90;;;;;;5051779;28;20221;-55
2022/11/15 03:44:33;;;;;;;11.53;6.60;;;12.00;99.90;;;;;;5051450;28;20229;-57
2022/11/15 03:47:07;;;;;;;10.57;5.93;;;12.00;99.90;;;;;;5051800;28;20259;-57
2022/11/15 03:49:37;;;;;;;6.70;5.00;;;12.00;99.90;;;;;;5051697;28;20218;-57
2022/11/15 03:52:05;;;;;;;9.40;5.83;;;12.00;99.90;;;;;;5051814;28;20220;-53
2022/11/15 03:54:32;;;;;;;10.10;5.70;;;12.10;99.90;;;;;;5051841;28;20207;-55
2022/11/15 03:56:58;;;;;;;7.97;6.07;;;12.10;99.90;;;;;;5051651;28;20773;-55
2022/11/15 03:59:25;;;;;;;8.73;6.00;;;12.10;99.90;;;;;;5051680;28;20669;-49
2022/11/15 04:01:52;;;;;;;7.57;5.57;;;12.00;99.90;;;;;;5051983;28;20621;-55
2022/11/15 04:04:18;;;;;;;8.20;5.40;;;12.10;99.90;;;;;;5051572;28;20232;-54
2022/11/15 04:06:47;;;;;;;7.47;5.40;;;12.10;99.90;;;;;;5051582;28;20213;-54
2022/11/15 04:09:14;;;;;;;8.17;5.73;;;12.10;99.90;;;;;;5051507;28;20230;-49
2022/11/15 04:11:40;;;;;;;7.90;5.30;;;12.10;99.90;;;;;;5051821;28;20207;-53
2022/11/15 04:14:07;;;;;;;9.53;6.10;;;12.10;99.90;;;;;;5051442;28;20226;-54
2022/11/15 04:16:34;;;;;;;8.57;5.63;;;12.10;99.90;;;;;;5051316;28;20511;-51
2022/11/15 04:24:30;;;;;;;7.47;5.43;;;12.20;99.90;;;;;;5055473;28;20230;-49
2022/11/15 04:26:57;;;;;;;5.43;4.87;;;12.10;99.90;;;;;;5055172;28;20259;-51
2022/11/15 04:29:35;;;;;;;7.53;5.73;;;12.10;99.90;;;;;;5055164;28;20684;-52
2022/11/15 04:32:02;;;;;;;7.43;5.53;;;12.10;99.90;;;;;;5055023;28;20216;-54
2022/11/15 04:34:29;;;;;;;7.13;5.30;;;12.10;99.90;;;;;;5055337;28;20208;-55
2022/11/15 04:37:12;;;;;;;7.33;5.43;;;12.10;99.90;;;;;;5055098;28;20216;-53
2022/11/15 04:39:39;;;;;;;8.47;6.07;;;12.10;99.90;;;;;;5055125;28;20214;-56
2022/11/15 04:42:05;;;;;;;8.43;5.47;;;12.10;99.90;;;;;;5054944;28;20214;-54
2022/11/15 04:44:32;;;;;;;6.80;5.40;;;12.10;99.90;;;;;;5054707;28;20229;-56
2022/11/15 04:47:00;;;;;;;8.53;5.60;;;12.10;99.90;;;;;;5054784;28;20212;-54
2022/11/15 04:49:26;;;;;;;8.53;5.80;;;12.10;99.90;;;;;;5055102;28;20216;-55
2022/11/15 04:51:53;;;;;;;8.30;5.10;;;12.10;99.90;;;;;;5055118;28;20240;-57
2022/11/15 04:54:21;;;;;;;10.77;6.40;;;12.10;99.90;;;;;;5054743;28;20223;-54
2022/11/15 04:56:48;;;;;;;7.20;5.73;;;12.10;99.90;;;;;;5054635;28;20213;-50
2022/11/15 04:59:14;;;;;;;7.37;5.23;;;12.10;99.90;;;;;;5054640;28;20217;-52
2022/11/15 05:01:41;;;;;;;8.67;5.47;;;12.20;99.90;;;;;;5054838;28;20224;-56
2022/11/15 05:04:19;;;;;;;7.87;6.07;;;12.20;99.90;;;;;;5054738;28;20229;-56
2022/11/15 05:06:46;;;;;;;9.27;5.67;;;12.20;99.90;;;;;;5054390;28;20214;-57
2022/11/15 05:09:13;;;;;;;8.03;5.47;;;12.20;99.90;;;;;;5054513;28;20267;-56
2022/11/15 05:11:42;;;;;;;8.37;5.97;;;12.20;99.90;;;;;;5054499;28;20873;-54
2022/11/15 05:14:09;;;;;;;8.83;5.90;;;12.20;99.90;;;;;;5054519;28;20299;-54
2022/11/15 05:16:35;;;;;;;8.80;6.30;;;12.10;99.90;;;;;;5054426;28;20610;-56
2022/11/15 05:19:02;;;;;;;8.60;5.83;;;12.10;99.90;;;;;;5054264;28;20201;-54
2022/11/15 05:21:30;;;;;;;7.57;5.87;;;12.10;99.90;;;;;;5054469;28;20359;-53
2022/11/15 05:23:56;;;;;;;9.93;6.33;;;12.20;99.90;;;;;;5054148;28;20716;-53
2022/11/15 05:26:23;;;;;;;7.60;5.87;;;12.10;99.90;;;;;;5054215;28;20230;-55
2022/11/15 05:28:55;;;;;;;11.33;6.37;;;12.10;99.90;;;;;;5054117;28;20211;-53
2022/11/15 05:31:22;;;;;;;7.77;6.30;;;12.10;99.90;;;;;;5053021;28;20298;-52
2022/11/15 05:33:51;;;;;;;8.67;6.00;;;12.10;99.90;;;;;;5053996;28;20230;-55
2022/11/15 05:36:22;;;;;;;8.97;6.20;;;12.10;99.90;;;;;;5053893;28;20292;-52
2022/11/15 05:38:49;;;;;;;8.40;6.03;;;12.20;99.90;;;;;;5053649;28;20270;-55
2022/11/15 05:41:17;;;;;;;8.07;6.37;;;12.20;99.90;;;;;;5054122;28;20569;-53
2022/11/15 05:43:45;;;;;;;10.10;6.43;;;12.10;99.90;;;;;;5053726;28;20224;-55
2022/11/15 05:46:14;;;;;;;8.30;5.83;;;12.20;99.90;;;;;;5053655;28;20655;-56
2022/11/15 05:48:43;;;;;;;9.53;6.07;;;12.20;99.90;;;;;;5053835;28;20678;-54
2022/11/15 05:51:12;;;;;;;9.10;6.37;;;12.20;99.90;;;;;;5053882;28;20698;-52
2022/11/15 05:53:39;;;;;;;8.23;5.77;;;12.20;99.90;;;;;;5053769;28;20225;-54
2022/11/15 05:56:06;;;;;;;7.37;5.93;;;12.10;99.90;;;;;;5053653;28;20202;-54
2022/11/15 05:58:33;;;;;;;10.67;6.27;;;12.20;99.90;;;;;;5053575;28;20304;-57
2022/11/15 06:01:01;;;;;;;9.13;7.17;;;12.10;99.90;;;;;;5053600;28;20215;-55
2022/11/15 06:03:29;;;;;;;6.93;6.03;;;12.10;99.90;;;;;;5053495;28;20286;-55
2022/11/15 06:05:56;;;;;;;8.60;5.70;;;12.00;99.90;;;;;;5053621;28;20225;-56
2022/11/15 06:08:23;;;;;;;7.87;6.10;;;12.00;99.90;;;;;;5053379;28;20213;-57
2022/11/15 06:10:50;;;;;;;9.33;6.50;;;11.90;99.90;;;;;;5053431;28;20218;-52
2022/11/15 06:13:16;;;;;;;7.00;5.90;;;11.90;99.90;;;;;;5053166;28;20230;-56
2022/11/15 06:15:43;;;;;;;9.83;6.80;;;11.90;99.90;;;;;;5052962;28;20204;-57
2022/11/15 06:18:10;;;;;;;10.47;5.90;;;11.90;99.90;;;;;;5053018;28;20218;-52
2022/11/15 06:20:38;;;;;;;8.80;6.20;;;11.90;99.90;;;;;;5053061;28;20680;-56
2022/11/15 06:23:05;;;;;;;7.87;5.50;;;12.00;99.90;;;;;;5053038;28;20225;-55
2022/11/15 06:25:32;;;;;;;6.30;4.97;;;12.00;99.90;;;;;;5053134;28;20766;-55
2022/11/15 06:27:59;;;;;;;7.47;5.47;;;12.00;99.90;;;;;;5052900;28;20208;-55
2022/11/15 06:30:27;;;;;;;9.87;5.47;;;12.00;99.90;;;;;;5053052;28;20220;-54
2022/11/15 06:33:01;;;;;;;8.10;5.17;;;12.00;99.90;;;;;;5052725;28;20232;-56
2022/11/15 06:35:28;;;;;;;6.63;4.90;;;12.00;99.90;;;;;;5053215;28;20203;-54
2022/11/15 06:37:56;;;;;;;5.50;3.77;;;12.00;99.90;;;;;;5052583;28;20700;-55
2022/11/15 06:40:23;;;;;;;5.63;4.20;;;12.10;99.90;;;;;;5052979;28;20256;-53
2022/11/15 06:42:49;;;;;;;5.87;4.20;;;12.10;99.90;;;;;;5052639;28;20249;-56
2022/11/15 06:45:16;;;;;;;7.20;3.80;;;12.10;99.90;;;;;;5052548;28;20234;-53
2022/11/15 06:47:46;;;;;;;5.63;3.77;;;12.10;99.90;;;;;;5052470;28;20270;-54
2022/11/15 06:50:13;;;;;;;4.80;3.50;;;12.20;99.90;;;;;;5052748;28;20205;-54
2022/11/15 06:52:40;;;;;;;3.80;3.20;;;12.20;99.90;;;;;;5052598;28;20226;-54
2022/11/15 06:55:09;;;;;;;3.60;3.07;;;12.20;99.90;;;;;;5052589;28;20204;-54
2022/11/15 06:57:36;;;;;;;4.47;3.53;;;12.30;99.90;;;;;;5052145;28;20206;-54
2022/11/15 07:00:05;;;;;;;5.80;3.40;;;12.30;99.90;;;;;;5052157;28;20212;-54
2022/11/15 07:02:32;;;;;;;3.63;3.17;;;12.30;99.90;;;;;;5052443;28;20283;-54
2022/11/15 07:04:58;;;;;;;4.53;3.53;;;12.20;99.90;;;;;;5052283;28;20553;-55
2022/11/15 07:07:25;;;;;;;4.23;3.43;;;12.20;99.90;;;;;;5052202;28;20212;-53
2022/11/15 07:09:52;;;;;;;4.53;3.30;;;12.30;99.90;;;;;;5052224;28;20207;-57
2022/11/15 07:12:20;;;;;;;4.93;2.97;;;12.30;99.90;;;;;;5052157;28;20206;-57
2022/11/15 07:14:46;;;;;;;5.70;3.00;;;12.30;99.90;;;;;;5051788;28;20690;-57
2022/11/15 07:17:13;;;;;;;3.10;2.80;;;12.30;99.90;;;;;;5052065;28;20632;-54
2022/11/15 07:19:40;;;;;;;4.07;3.13;;;12.30;99.90;;;;;;5051758;28;20814;-52
2022/11/15 07:22:06;;;;;;;3.53;2.93;;;12.20;99.90;;;;;;5052025;28;20269;-56
2022/11/15 07:24:33;;;;;;;5.20;2.80;;;12.20;99.90;;;;;;5052013;28;20213;-55
2022/11/15 07:27:00;;;;;;;3.40;2.57;;;12.20;99.90;;;;;;5051605;28;20367;-52
2022/11/15 07:29:28;;;;;;;3.03;2.23;;;12.10;99.90;;;;;;5051886;28;20214;-57
2022/11/15 07:31:55;;;;;;;7.13;2.53;;;12.10;99.90;;;;;;5052100;28;20571;-54
2022/11/15 07:34:22;;;;;;;2.97;2.53;;;12.10;99.90;;;;;;5052010;28;20580;-54
2022/11/15 07:36:49;;;;;;;5.73;2.43;;;12.10;99.90;;;;;;5051561;28;20212;-55
2022/11/15 07:39:15;;;;;;;3.07;2.47;;;12.00;99.90;;;;;;5051752;28;20214;-57
2022/11/15 07:41:43;;;;;;;2.83;2.33;;;12.00;99.90;;;;;;5051640;28;20789;-55
2022/11/15 07:44:09;;;;;;;3.07;2.20;;;12.00;99.90;;;;;;5051550;28;20261;-57
2022/11/15 07:46:37;;;;;;;3.77;2.47;;;11.90;99.90;;;;;;5051109;28;20234;-54
2022/11/15 07:49:04;;;;;;;3.50;2.43;;;11.90;99.90;;;;;;5051664;28;20767;-53
2022/11/15 07:51:31;;;;;;;4.20;2.50;;;11.90;99.90;;;;;;5051238;28;20206;-52
2022/11/15 07:53:58;;;;;;;2.77;2.30;;;11.90;99.90;;;;;;5051021;28;20605;-55
2022/11/15 07:56:24;;;;;;;3.03;2.47;;;11.90;99.90;;;;;;5051130;28;20190;-51
2022/11/15 07:58:51;;;;;;;3.27;2.20;;;11.80;99.90;;;;;;5051637;28;20673;-56
2022/11/15 08:01:18;;;;;;;2.63;2.10;;;11.80;99.90;;;;;;5051091;28;20252;-53
2022/11/15 08:03:46;;;;;;;3.73;2.37;;;11.90;99.90;;;;;;5051732;28;20237;-56
2022/11/15 08:06:12;;;;;;;2.77;2.30;;;11.90;99.90;;;;;;5051197;28;20230;-55
2022/11/15 08:08:39;;;;;;;3.03;2.53;;;11.90;99.90;;;;;;5051500;28;20210;-56
2022/11/15 08:11:06;;;;;;;2.87;2.10;;;11.90;99.90;;;;;;5051817;28;20211;-53
2022/11/15 08:13:32;;;;;;;2.63;2.10;;;12.00;99.90;;;;;;5051212;28;20229;-57
2022/11/15 08:16:00;;;;;;;2.97;2.33;;;12.00;99.90;;;;;;5051260;28;20209;-52
2022/11/15 08:18:27;;;;;;;3.33;2.10;;;12.00;99.90;;;;;;5051656;28;20633;-53
2022/11/15 08:20:59;;;;;;;3.37;2.07;;;12.00;99.90;;;;;;5051277;28;20206;-56
2022/11/15 08:23:25;;;;;;;2.13;1.87;;;12.00;99.90;;;;;;5051425;28;20237;-49
2022/11/15 08:25:52;;;;;;;2.63;1.90;;;12.10;99.90;;;;;;5051616;28;20284;-55
2022/11/15 08:28:19;;;;;;;3.60;1.80;;;12.10;99.90;;;;;;5051371;28;20213;-50
2022/11/15 08:30:45;;;;;;;3.90;2.20;;;12.10;99.90;;;;;;5051068;28;20219;-54
2022/11/15 08:33:13;;;;;;;2.57;2.13;;;12.10;99.90;;;;;;5051266;28;20233;-56
2022/11/15 08:35:40;;;;;;;2.30;1.97;;;12.10;99.90;;;;;;5051863;28;20627;-53
2022/11/15 08:38:08;;;;;;;2.67;1.83;;;12.10;99.90;;;;;;5052532;28;20262;-52
2022/11/15 08:40:36;;;;;;;2.37;1.80;;;12.20;99.90;;;;;;5052317;28;20203;-54
2022/11/15 08:43:02;;;;;;;2.77;2.40;;;12.20;99.90;;;;;;5051323;28;20283;-56
2022/11/15 08:45:29;;;;;;;2.20;1.80;;;12.30;99.90;;;;;;5050827;28;20203;-55
2022/11/15 08:47:56;;;;;;;2.80;1.80;;;12.20;99.90;;;;;;5050896;28;20206;-56
2022/11/15 08:50:23;;;;;;;2.47;2.00;;;12.30;99.90;;;;;;5051012;28;20216;-56
2022/11/15 08:52:50;;;;;;;2.33;1.70;;;12.30;99.90;;;;;;5051607;28;20229;-54
2022/11/15 08:55:18;;;;;;;2.63;1.93;;;12.30;99.70;;;;;;5051366;28;20255;-54
2022/11/15 08:57:45;;;;;;;1.93;1.60;;;12.30;90.30;;;;;;5050852;28;20211;-53
2022/11/15 09:00:13;;;;;;;2.77;1.77;;;12.30;86.40;;;;;;5051022;28;20706;-52
2022/11/15 09:02:40;;;;;;;2.53;1.60;;;12.30;69.30;;;;;;5050901;28;20267;-55
2022/11/15 09:05:09;;;;;;;7.33;1.83;;;12.30;63.00;;;;;;5050835;28;20213;-57
2022/11/15 09:07:36;;;;;;;1.40;1.20;;;12.30;58.80;;;;;;5052798;28;20255;-55
2022/11/15 09:10:03;;;;;;;2.93;1.37;;;12.20;58.30;;;;;;5054594;28;20202;-57
2022/11/15 09:12:31;;;;;;;3.57;1.33;;;12.20;57.60;;;;;;5053984;28;20234;-56
2022/11/15 09:14:58;;;;;;;2.40;1.47;;;12.30;54.80;;;;;;5054472;28;20212;-53
2022/11/15 09:17:25;;;;;;;1.93;1.43;;;12.30;44.60;;;;;;5054297;28;20202;-56
2022/11/15 09:19:52;;;;;;;2.97;1.60;;;12.30;30.50;;;;;;5054204;28;20235;-56
2022/11/15 09:22:18;;;;;;;3.80;1.70;;;12.30;29.50;;;;;;5054331;28;20639;-56
2022/11/15 09:24:45;;;;;;;2.77;1.40;;;12.30;17.40;;;;;;5054294;28;20212;-54
2022/11/15 09:27:13;;;;;;;1.93;1.30;;;12.40;25.90;;;;;;5053898;28;20223;-56
2022/11/15 09:29:41;;;;;;;1.63;1.30;;;12.40;17.20;;;;;;5054077;28;20217;-55
2022/11/15 09:32:07;;;;;;;2.07;1.70;;;12.50;21.40;;;;;;5053873;28;20257;-56
2022/11/15 09:34:34;;;;;;;2.27;1.50;;;12.50;13.80;;;;;;5054304;28;20212;-53
2022/11/15 09:37:01;;;;;;;2.77;1.30;;;12.40;7.30;;;;;;5054011;28;20301;-52
2022/11/15 09:39:28;;;;;;;1.57;1.30;;;12.40;4.10;;;;;;5053922;28;20650;-54
2022/11/15 09:42:24;;;;;;;2.33;1.33;;;12.40;6.30;;;;;;5053861;28;20765;-53
2022/11/15 09:45:12;;;;;;;1.90;1.47;;;12.50;1.00;;;;;;5054490;28;20278;-55
2022/11/15 09:48:10;;;;;;;1.90;1.17;;;12.60;12.60;;;;;;5053806;28;20225;-55
2022/11/15 09:50:42;;;;;;;1.90;1.20;;;12.70;1.00;;;;;;5047151;28;20672;-53
2022/11/15 09:53:13;;;;;;;3.13;1.40;;;12.80;1.00;;;;;;5053649;28;20727;-54
2022/11/15 09:55:48;;;;;;;3.13;1.37;;;12.80;1.00;;;;;;5054019;28;20340;-54
2022/11/15 09:58:22;;;;;;;2.80;1.40;;;13.00;1.00;;;;;;5053377;28;20263;-54
2022/11/15 10:00:52;;;;;;;1.07;0.90;;;13.00;1.00;;;;;;5053621;28;20214;-57
2022/11/15 10:03:28;;;;;;;3.13;1.00;;;13.20;1.00;;;;;;5053351;28;20224;-55
2022/11/15 10:05:58;;;;;;;3.37;1.47;;;13.10;1.00;;;;;;5053489;28;20205;-54
2022/11/15 10:08:36;;;;;;;2.17;0.90;;;13.00;1.00;;;;;;5053260;28;20211;-52
2022/11/15 10:11:06;;;;;;;1.33;1.00;;;12.80;1.00;;;;;;5053137;28;20266;-57
2022/11/15 10:13:35;;;;;;;3.63;1.47;;;12.80;1.00;;;;;;5053142;28;20715;-54
2022/11/15 10:16:13;;;;;;;3.60;0.80;;;12.80;1.00;;;;;;5053346;28;20219;-54
2022/11/15 10:18:50;;;;;;;2.30;1.20;;;12.80;1.00;;;;;;5052724;28;20636;-56
2022/11/15 10:21:20;;;;;;;2.00;1.30;;;13.00;99.90;;;;;;5053083;28;20621;-57
2022/11/15 10:23:47;;;;;;;2.07;1.00;;;12.90;99.90;;;;;;5053009;28;20228;-56
2022/11/15 10:26:17;;;;;;;1.60;0.93;;;12.90;99.90;;;;;;5052735;28;20236;-52
2022/11/15 10:28:44;;;;;;;2.30;1.10;;;12.90;99.90;;;;;;5053293;28;20757;-56
2022/11/15 10:31:24;;;;;;;1.87;1.27;;;12.90;99.90;;;;;;5053163;28;20216;-54
2022/11/15 10:33:51;;;;;;;1.40;1.03;;;12.90;92.20;;;;;;5052788;28;20647;-55
2022/11/15 10:36:22;;;;;;;0.97;0.83;;;13.00;1.00;;;;;;5052806;28;20741;-55
2022/11/15 10:38:54;;;;;;;1.20;0.97;;;12.90;1.00;;;;;;5052361;28;20217;-55
2022/11/15 10:41:23;;;;;;;1.70;1.20;;;13.00;2.90;;;;;;5053038;28;20221;-55
2022/11/15 10:44:09;;;;;;;1.20;1.10;;;13.00;21.60;;;;;;5052351;28;20229;-52
2022/11/15 10:46:39;;;;;;;1.83;1.10;;;12.90;1.00;;;;;;5052526;28;20626;-54
2022/11/15 10:49:17;;;;;;;1.40;0.90;;;13.00;99.90;;;;;;5052579;28;20627;-52
2022/11/15 10:51:48;;;;;;;1.57;1.00;;;13.10;1.00;;;;;;5052399;28;20678;-54
2022/11/15 10:54:22;;;;;;;2.33;1.20;;;13.20;99.90;;;;;;5052236;28;20263;-55
2022/11/15 10:56:52;;;;;;;1.50;1.00;;;13.20;1.00;;;;;;5052508;28;20229;-56
2022/11/15 10:59:26;;;;;;;2.10;1.13;;;13.10;98.90;;;;;;5052363;28;20258;-55
2022/11/15 11:01:55;;;;;;;1.80;1.20;;;13.20;1.00;;;;;;5052794;28;20212;-55
2022/11/15 11:04:22;;;;;;;1.87;1.23;;;13.30;99.90;;;;;;5052220;28;20734;-56
2022/11/15 11:06:50;;;;;;;2.10;0.83;;;13.30;99.90;;;;;;5052075;28;20224;-57
2022/11/15 11:09:30;;;;;;;1.10;0.80;;;13.30;99.90;;;;;;5052235;28;20266;-52
2022/11/15 11:11:56;;;;;;;2.40;1.20;;;13.40;1.00;;;;;;5052092;28;20216;-57
2022/11/15 11:14:26;;;;;;;2.70;1.10;;;13.50;1.00;;;;;;5052200;28;20242;-55
2022/11/15 11:16:59;;;;;;;1.23;0.90;;;13.60;1.00;;;;;;5052421;28;20581;-55
2022/11/15 11:19:49;;;;;;;2.60;0.90;;;13.70;1.00;;;;;;5051949;28;20628;-51
2022/11/15 11:22:23;;;;;;;1.60;0.87;;;13.50;52.60;;;;;;5052038;28;20252;-57
2022/11/15 11:24:59;;;;;;;2.73;1.17;;;13.50;12.00;;;;;;5052361;28;20209;-54
2022/11/15 11:27:44;;;;;;;0.80;0.80;;;13.60;1.00;;;;;;5051994;28;20239;-56
2022/11/15 11:30:18;;;;;;;1.63;0.90;;;13.60;1.00;;;;;;5051192;28;20364;-52
2022/11/15 11:33:06;;;;;;;1.37;0.90;;;13.70;99.90;;;;;;5051913;28;20283;-55
2022/11/15 11:35:40;;;;;;;2.90;1.03;;;13.80;99.90;;;;;;5052476;28;20205;-57
2022/11/15 11:38:20;;;;;;;1.73;0.97;;;13.80;99.90;;;;;;5051993;28;20212;-55
2022/11/15 11:41:01;;;;;;;2.23;1.20;;;13.90;63.20;;;;;;5052051;28;20207;-56
2022/11/15 11:43:35;;;;;;;1.97;0.80;;;14.00;1.00;;;;;;5052013;28;20231;-54
2022/11/15 11:46:17;;;;;;;1.87;0.97;;;14.00;1.00;;;;;;5051529;28;20685;-54
2022/11/15 11:48:50;;;;;;;1.30;0.93;;;14.10;1.00;;;;;;5052120;28;20209;-53
2022/11/15 11:51:24;;;;;;;3.03;1.00;;;14.20;1.00;;;;;;5051814;28;20252;-55
2022/11/15 11:53:56;;;;;;;1.47;0.90;;;14.20;1.00;;;;;;5051295;28;20229;-57
2022/11/15 11:56:29;;;;;;;1.63;0.87;;;14.20;99.90;;;;;;5051853;28;20287;-55
2022/11/15 11:59:01;;;;;;;1.57;0.80;;;14.20;99.90;;;;;;5051765;28;20276;-54
2022/11/15 12:01:33;;;;;;;3.40;0.93;;;14.00;99.90;;;;;;5051712;28;20202;-56
2022/11/15 12:04:06;;;;;;;1.07;0.97;;;14.10;99.90;;;;;;5051584;28;20237;-55
2022/11/15 12:06:37;;;;;;;1.67;0.97;;;14.00;99.90;;;;;;5051343;28;20205;-53
2022/11/15 12:09:14;;;;;;;1.67;0.90;;;14.00;99.90;;;;;;5051498;28;20206;-56
2022/11/15 12:11:50;;;;;;;0.87;0.73;;;14.00;99.90;;;;;;5051587;28;20688;-54
2022/11/15 12:14:28;;;;;;;0.90;0.70;;;14.10;99.90;;;;;;5051076;28;20221;-55
2022/11/15 12:16:55;;;;;;;1.77;0.60;;;14.10;99.90;;;;;;5051518;28;20211;-56
2022/11/15 12:19:23;;;;;;;2.13;0.87;;;14.10;99.90;;;;;;5051397;28;20210;-54
2022/11/15 12:21:56;;;;;;;2.90;0.80;;;14.10;99.90;;;;;;5051589;28;20209;-56
2022/11/15 12:24:27;;;;;;;1.73;0.77;;;14.10;99.90;;;;;;5051155;28;20723;-55
2022/11/15 12:26:58;;;;;;;1.97;0.70;;;14.00;99.90;;;;;;5050939;28;20695;-57
2022/11/15 12:29:31;;;;;;;2.10;0.70;;;14.10;99.90;;;;;;5041156;28;20205;-56
2022/11/15 12:31:59;;;;;;;1.83;0.80;;;14.10;99.90;;;;;;5029930;28;20296;-62
2022/11/15 12:34:49;;;;;;;1.53;1.17;;;14.00;99.90;;;;;;5030876;28;20230;-61
2022/11/15 12:37:47;;;;;;;2.17;0.87;;;14.00;99.90;;;;;;5031104;28;20206;-62
2022/11/15 12:40:26;;;;;;;3.07;1.33;;;14.00;99.90;;;;;;5031396;28;20214;-57
2022/11/15 12:43:26;;;;;;;1.40;0.63;;;14.20;99.90;;;;;;5034690;28;20238;-58
2022/11/15 12:45:53;;;;;;;0.90;0.80;;;14.30;99.90;;;;;;5033937;28;20220;-59
2022/11/15 12:48:56;;;;;;;0.77;0.73;;;14.30;99.90;;;;;;5034615;28;20783;-57
2022/11/15 12:52:08;;;;;;;2.70;0.70;;;14.30;99.90;;;;;;5034258;28;20300;-59
2022/11/15 12:54:59;;;;;;;1.63;1.00;;;14.20;99.90;;;;;;5035528;28;20242;-60
2022/11/15 12:57:39;;;;;;;2.33;0.73;;;14.10;99.90;;;;;;5024535;28;20207;-58
2022/11/15 13:00:47;;;;;;;1.37;0.70;;;14.10;99.90;;;;;;5034246;28;20214;-57
2022/11/15 13:03:28;;;;;;;2.60;0.90;;;14.00;99.90;;;;;;5034101;28;20237;-56
2022/11/15 13:06:07;;;;;;;1.37;0.63;;;14.00;99.90;;;;;;5033732;28;20956;-58
2022/11/15 13:08:47;;;;;;;1.40;0.80;;;13.90;99.90;;;;;;5034344;28;20638;-58
2022/11/15 13:11:47;;;;;;;1.27;0.73;;;13.90;99.90;;;;;;5034358;28;20817;-59